Time;durP1;ratioP1;P1;durP2;ratioP2;P2;SDS_P1;SDS_P2;PMS_P1;PMS_P2;Temp;Humidity;BMP_temperature;BMP_pressure;BME280_temperature;BME280_humidity;BME280_pressure;Samples;Min_cycle;Max_cycle;Signal;HPM_P1;HPM_P2
2022/10/18 00:00:38;;;;;;;;;;;;;;;17.21;83.87;101415.53;5015824;28;936;-59
2022/10/18 00:03:03;;;;;;;;;;;;;;;17.19;83.07;101412.25;5015725;28;1221;-60
2022/10/18 00:05:28;;;;;;;;;;;;;;;17.19;83.93;101407.53;5015506;28;1906;-61
2022/10/18 00:07:54;;;;;;;;;;;;;;;17.21;84.11;101407.25;5015396;28;738;-59
2022/10/18 00:10:19;;;;;;;;;;;;;;;17.19;83.58;101403.94;5015726;28;1048;-60
2022/10/18 00:12:44;;;;;;;;;;;;;;;17.19;84.29;101413.06;5015498;28;1174;-61
2022/10/18 00:15:09;;;;;;;;;;;;;;;17.19;84.14;101420.53;5015556;28;877;-60
2022/10/18 00:17:35;;;;;;;;;;;;;;;17.19;nan;101426.06;5015196;28;1072;-59
2022/10/18 00:20:00;;;;;;;;;;;;;;;17.19;83.38;101417.78;5015424;28;890;-60
2022/10/18 00:22:25;;;;;;;;;;;;;;;17.19;83.99;101423.31;5015253;28;1182;-59
2022/10/18 00:24:51;;;;;;;;;;;;;;;17.18;84.14;101419.72;5015456;28;2007;-59
2022/10/18 00:27:16;;;;;;;;;;;;;;;16.70;83.96;101340.88;5015065;28;806;-59
2022/10/18 00:29:41;;;;;;;;;;;;;;;17.18;84.23;101428.03;5015270;28;1039;-59
2022/10/18 00:32:06;;;;;;;;;;;;;;;17.18;82.96;101424.47;5015095;28;1289;-60
2022/10/18 00:34:31;;;;;;;;;;;;;;;17.18;84.18;101428.03;5015165;28;849;-60
2022/10/18 00:36:57;;;;;;;;;;;;;;;17.18;84.37;101427.22;5014872;28;979;-59
2022/10/18 00:39:22;;;;;;;;;;;;;;;17.18;83.37;101430.00;5015199;28;794;-59
2022/10/18 00:41:47;;;;;;;;;;;;;;;17.18;83.24;101428.03;5014927;28;1280;-60
2022/10/18 00:44:12;;;;;;;;;;;;;;;17.18;83.33;101424.47;5014817;28;1914;-60
2022/10/18 00:46:42;;;;;;;;;;;;;;;17.17;84.01;101418.09;5014737;28;948;-60
2022/10/18 00:49:16;;;;;;;;;;;;;;;17.17;83.95;101418.09;5014909;28;995;-60
2022/10/18 00:51:43;;;;;;;;;;;;;;;17.17;83.25;101415.34;5014688;28;1227;-59
2022/10/18 00:54:09;;;;;;;;;;;;;;;17.17;83.98;101411.75;5014982;28;808;-59
2022/10/18 00:56:35;;;;;;;;;;;;;;;17.17;83.91;101411.75;5014593;28;980;-59
2022/10/18 00:59:00;;;;;;;;;;;;;;;17.17;83.21;101412.56;5014726;28;821;-59
2022/10/18 01:01:25;;;;;;;;;;;;;;;17.17;84.19;101420.88;5014635;28;1213;-59
2022/10/18 01:03:51;;;;;;;;;;;;;;;17.18;83.02;101418.94;5014186;28;1906;-59
2022/10/18 01:06:16;;;;;;;;;;;;;;;17.18;83.11;101421.69;5014470;28;785;-59
2022/10/18 01:09:02;;;;;;;;;;;;;;;17.17;83.59;101408.97;5014535;28;1003;-59
2022/10/18 01:11:43;;;;;;;;;;;;;;;17.17;83.63;101411.75;5014662;28;1300;-59
2022/10/18 01:14:20;;;;;;;;;;;;;;;17.15;83.29;101400.16;5014470;28;743;-60
2022/10/18 01:16:56;;;;;;;;;;;;;;;17.16;83.13;101413.69;5014416;28;846;-60
2022/10/18 01:19:30;;;;;;;;;;;;;;;17.16;83.88;101413.69;5014576;28;814;-59
2022/10/18 01:22:06;;;;;;;;;;;;;;;17.17;83.17;101417.28;5014275;28;1205;-59
2022/10/18 01:24:48;;;;;;;;;;;;;;;17.16;82.83;101419.22;5014103;28;1901;-60
2022/10/18 01:27:29;;;;;;;;;;;;;;;17.16;83.93;101418.41;5014050;28;814;-59
2022/10/18 01:29:54;;;;;;;;;;;;;;;17.16;82.90;101415.63;5014270;28;1039;-59
2022/10/18 01:32:21;;;;;;;;;;;;;;;17.16;83.37;101410.09;5013830;28;1166;-60
2022/10/18 01:34:48;;;;;;;;;;;;;;;17.16;83.86;101416.47;5014080;28;818;-60
2022/10/18 01:37:16;;;;;;;;;;;;;;;17.16;83.68;101412.88;5013872;28;1038;-59
2022/10/18 01:39:43;;;;;;;;;;;;;;;17.16;82.77;101410.09;5014126;28;937;-60
2022/10/18 01:42:11;;;;;;;;;;;;;;;17.15;83.42;101402.91;5013697;28;1211;-60
2022/10/18 01:44:37;;;;;;;;;;;;;;;17.16;83.45;101393.50;5013857;28;1905;-59
2022/10/18 01:47:04;;;;;;;;;;;;;;;17.16;83.80;101387.97;5013655;28;1129;-61
2022/10/18 01:49:29;;;;;;;;;;;;;;;17.14;83.51;101388.28;5013833;28;996;-59
2022/10/18 01:51:54;;;;;;;;;;;;;;;17.15;82.72;101380.78;5013547;28;1201;-60
2022/10/18 01:54:23;;;;;;;;;;;;;;;17.15;83.54;101384.38;5013846;28;856;-60
2022/10/18 01:57:04;;;;;;;;;;;;;;;17.15;83.35;101380.78;5013403;28;964;-60
2022/10/18 01:59:43;;;;;;;;;;;;;;;17.15;82.83;101366.97;5013652;28;893;-60
2022/10/18 02:02:17;;;;;;;;;;;;;;;17.15;82.55;101359.47;5013548;28;1206;-59
2022/10/18 02:04:42;;;;;;;;;;;;;;;17.14;83.34;101352.31;5013595;28;1906;-59
2022/10/18 02:07:28;;;;;;;;;;;;;;;17.14;82.62;101351.47;5013274;28;980;-59
2022/10/18 02:10:02;;;;;;;;;;;;;;;17.15;83.33;101362.25;5012662;28;1169;-61
2022/10/18 02:12:28;;;;;;;;;;;;;;;17.14;82.87;101363.38;5013544;28;1150;-59
2022/10/18 02:14:54;;;;;;;;;;;;;;;17.15;83.07;101355.88;5013322;28;853;-61
2022/10/18 02:17:20;;;;;;;;;;;;;;;17.15;83.48;101351.19;5012751;28;1067;-60
2022/10/18 02:19:48;;;;;;;;;;;;;;;17.15;83.27;101358.66;5013555;28;814;-59
2022/10/18 02:22:13;;;;;;;;;;;;;;;17.14;83.36;101360.59;5013452;28;1268;-60
2022/10/18 02:24:43;;;;;;;;;;;;;;;17.14;82.35;101368.91;5013785;28;1955;-59
2022/10/18 02:27:09;;;;;;;;;;;;;;;17.15;83.39;101372.50;5013145;28;1004;-60
2022/10/18 02:29:34;;;;;;;;;;;;;;;17.14;83.47;101370.84;5013486;28;960;-59
2022/10/18 02:32:22;;;;;;;;;;;;;;;17.14;82.90;101377.19;5013307;28;1221;-59
2022/10/18 02:34:52;;;;;;;;;;;;;;;17.15;83.21;101375.25;5007685;28;1489;-60
2022/10/18 02:37:18;;;;;;;;;;;;;;;17.14;82.21;101376.38;5013407;28;832;-60
2022/10/18 02:39:46;;;;;;;;;;;;;;;17.14;83.43;101370.84;5013419;28;802;-58
2022/10/18 02:42:12;;;;;;;;;;;;;;;17.14;82.48;101363.38;5013194;28;1225;-59
2022/10/18 02:44:37;;;;;;;;;;;;;;;17.14;82.54;101368.06;5013180;28;1894;-59
2022/10/18 02:47:03;;;;;;;;;;;;;;;17.13;83.43;101358.97;5012937;28;1027;-61
2022/10/18 02:49:28;;;;;;;;;;;;;;;17.13;83.38;101356.19;5013125;28;1015;-60
2022/10/18 02:51:54;;;;;;;;;;;;;;;17.13;82.94;101360.91;5013018;28;1312;-59
2022/10/18 02:54:19;;;;;;;;;;;;;;;17.13;83.61;101356.19;5016148;28;1465;-60
2022/10/18 02:56:44;;;;;;;;;;;;;;;17.13;83.59;101358.13;5032557;28;1055;-59
2022/10/18 02:59:09;;;;;;;;;;;;;;;17.13;83.06;101360.91;5032872;28;790;-59
2022/10/18 03:01:35;;;;;;;;;;;;;;;17.13;83.54;101349.84;5032694;28;1209;-59
2022/10/18 03:04:00;;;;;;;;;;;;;;;17.12;82.35;101346.25;5032739;28;1902;-59
2022/10/18 03:06:25;;;;;;;;;;;;;;;17.13;83.55;101350.66;5032515;28;863;-60
2022/10/18 03:08:51;;;;;;;;;;;;;;;17.13;83.32;101344.31;5032724;28;817;-60
2022/10/18 03:11:16;;;;;;;;;;;;;;;17.12;83.17;101349.00;5032646;28;1314;-59
2022/10/18 03:13:41;;;;;;;;;;;;;;;17.12;82.97;101348.19;5032705;28;774;-59
2022/10/18 03:16:06;;;;;;;;;;;;;;;17.12;82.73;101348.19;5032551;28;984;-58
2022/10/18 03:18:31;;;;;;;;;;;;;;;17.13;83.22;101341.53;5032646;28;995;-60
2022/10/18 03:20:56;;;;;;;;;;;;;;;17.12;83.13;101348.19;5032549;28;1216;-59
2022/10/18 03:23:21;;;;;;;;;;;;;;;17.12;82.85;101349.00;5032663;28;1062;-60
2022/10/18 03:25:47;;;;;;;;;;;;;;;17.12;83.56;101337.13;5032319;28;1890;-60
2022/10/18 03:28:12;;;;;;;;;;;;;;;17.13;83.38;101344.31;5035274;28;1104;-59
2022/10/18 03:30:40;;;;;;;;;;;;;;;17.12;83.36;101351.78;5036204;28;960;-60
2022/10/18 03:33:05;;;;;;;;;;;;;;;17.11;82.57;101344.59;5036084;28;1189;-60
2022/10/18 03:35:31;;;;;;;;;;;;;;;17.11;82.96;101347.38;5035968;28;1098;-60
2022/10/18 03:37:56;;;;;;;;;;;;;;;17.11;83.16;101349.31;5035761;28;1027;-59
2022/10/18 03:40:21;;;;;;;;;;;;;;;17.11;82.40;101344.59;5035982;28;797;-59
2022/10/18 03:42:46;;;;;;;;;;;;;;;17.11;83.52;101347.38;5035931;28;1250;-59
2022/10/18 03:45:11;;;;;;;;;;;;;;;17.11;83.09;101363.97;5035857;28;1894;-59
2022/10/18 03:47:36;;;;;;;;;;;;;;;17.11;83.59;101346.53;5035590;28;889;-60
2022/10/18 03:50:01;;;;;;;;;;;;;;;17.11;83.74;101347.38;5035797;28;827;-60
2022/10/18 03:52:27;;;;;;;;;;;;;;;17.10;83.63;101351.25;5035651;28;1286;-60
2022/10/18 03:54:52;;;;;;;;;;;;;;;17.11;83.52;101352.06;5035645;28;1290;-60
2022/10/18 03:57:17;;;;;;;;;;;;;;;17.11;83.77;101358.44;5035472;28;987;-59
2022/10/18 03:59:42;;;;;;;;;;;;;;;17.10;83.58;101351.25;5035650;28;878;-59
2022/10/18 04:02:07;;;;;;;;;;;;;;;17.11;82.97;101354.84;5035632;28;1615;-59
2022/10/18 04:04:32;;;;;;;;;;;;;;;17.10;83.50;101356.00;5035477;28;1902;-59
2022/10/18 04:06:58;;;;;;;;;;;;;;;17.10;83.32;101354.03;5035569;28;805;-59
2022/10/18 04:09:23;;;;;;;;;;;;;;;17.11;83.66;101349.31;5035528;28;976;-59
2022/10/18 04:11:51;;;;;;;;;;;;;;;17.10;83.67;101342.16;5035364;28;1252;-60
2022/10/18 04:14:16;;;;;;;;;;;;;;;17.09;82.81;101337.75;5035341;28;1038;-61
2022/10/18 04:16:41;;;;;;;;;;;;;;;17.09;83.90;101344.09;5035183;28;850;-60
2022/10/18 04:19:06;;;;;;;;;;;;;;;17.10;83.09;101344.94;5035321;28;1176;-60
2022/10/18 04:21:32;;;;;;;;;;;;;;;17.11;82.82;101347.38;5035384;28;1213;-59
2022/10/18 04:23:57;;;;;;;;;;;;;;;17.12;83.40;101337.94;5035204;28;1964;-60
2022/10/18 04:26:22;;;;;;;;;;;;;;;17.14;83.22;101345.94;5035056;28;1193;-59
2022/10/18 04:28:47;;;;;;;;;;;;;;;17.13;83.21;101341.53;5035251;28;797;-59
2022/10/18 04:31:12;;;;;;;;;;;;;;;17.12;83.39;101345.41;5035137;28;1283;-59
2022/10/18 04:33:37;;;;;;;;;;;;;;;17.12;82.34;101339.88;5035038;28;995;-59
2022/10/18 04:36:02;;;;;;;;;;;;;;;17.11;82.88;101336.31;5029082;28;1464;-60
2022/10/18 04:38:28;;;;;;;;;;;;;;;17.11;83.56;101347.38;5034305;28;992;-60
2022/10/18 04:40:53;;;;;;;;;;;;;;;17.10;82.82;101347.69;5034640;28;1906;-61
2022/10/18 04:43:18;;;;;;;;;;;;;;;17.10;83.51;101342.97;5029917;28;1518;-60
2022/10/18 04:45:47;;;;;;;;;;;;;;;17.10;83.33;101344.94;5014791;28;1902;-60
2022/10/18 04:48:12;;;;;;;;;;;;;;;17.10;82.79;101347.69;5015082;28;790;-59
2022/10/18 04:50:37;;;;;;;;;;;;;;;17.10;83.57;101350.47;5014937;28;833;-59
2022/10/18 04:53:03;;;;;;;;;;;;;;;17.10;83.86;101364.28;5014527;28;1658;-60
2022/10/18 04:55:28;;;;;;;;;;;;;;;17.10;83.87;101361.53;5014741;28;781;-60
2022/10/18 04:57:53;;;;;;;;;;;;;;;17.10;83.06;101367.84;5014679;28;968;-59
2022/10/18 05:00:18;;;;;;;;;;;;;;;17.11;83.47;101368.69;5014785;28;889;-60
2022/10/18 05:02:43;;;;;;;;;;;;;;;17.11;82.74;101368.69;5013376;28;1217;-61
2022/10/18 05:05:08;;;;;;;;;;;;;;;17.10;83.78;101367.84;5014132;28;1898;-59
2022/10/18 05:07:34;;;;;;;;;;;;;;;17.10;83.11;101372.59;5012539;28;869;-60
2022/10/18 05:09:59;;;;;;;;;;;;;;;17.09;83.75;101374.53;5014590;28;984;-60
2022/10/18 05:12:24;;;;;;;;;;;;;;;17.09;82.73;101359.88;5014490;28;1291;-62
2022/10/18 05:14:49;;;;;;;;;;;;;;;17.08;83.09;101359.06;5014531;28;857;-63
2022/10/18 05:17:14;;;;;;;;;;;;;;;17.09;83.36;101360.72;5014257;28;1090;-62
2022/10/18 05:19:39;;;;;;;;;;;;;;;17.10;83.48;101356.00;5014286;28;988;-63
2022/10/18 05:22:04;;;;;;;;;;;;;;;17.09;83.16;101354.34;5014332;28;1282;-63
2022/10/18 05:24:30;;;;;;;;;;;;;;;17.08;82.96;101355.47;5014203;28;1957;-60
2022/10/18 05:26:55;;;;;;;;;;;;;;;17.08;82.59;101359.06;5013883;28;933;-62
2022/10/18 05:29:20;;;;;;;;;;;;;;;17.08;83.85;101358.22;5014232;28;969;-61
2022/10/18 05:31:46;;;;;;;;;;;;;;;17.09;83.54;101359.88;5014131;28;1610;-62
2022/10/18 05:34:12;;;;;;;;;;;;;;;17.08;83.78;101358.22;5014092;28;1016;-62
2022/10/18 05:36:37;;;;;;;;;;;;;;;17.08;83.03;101361.00;5013928;28;869;-63
2022/10/18 05:39:02;;;;;;;;;;;;;;;17.07;83.69;101365.72;5014031;28;837;-61
2022/10/18 05:41:28;;;;;;;;;;;;;;;17.08;82.93;101361.00;5013998;28;1178;-63
2022/10/18 05:43:53;;;;;;;;;;;;;;;17.07;83.89;101365.72;5013984;28;1894;-62
2022/10/18 05:46:18;;;;;;;;;;;;;;;17.08;82.60;101363.78;5013779;28;818;-63
2022/10/18 05:48:47;;;;;;;;;;;;;;;17.08;82.82;101363.78;5013860;28;1031;-63
2022/10/18 05:51:13;;;;;;;;;;;;;;;17.08;82.58;101363.78;5012705;28;1242;-62
2022/10/18 05:53:38;;;;;;;;;;;;;;;17.08;82.78;101364.59;5013692;28;861;-62
2022/10/18 05:56:03;;;;;;;;;;;;;;;17.08;82.47;101363.78;5013575;28;992;-62
2022/10/18 05:58:28;;;;;;;;;;;;;;;17.08;83.87;101363.78;5013798;28;992;-63
2022/10/18 06:00:56;;;;;;;;;;;;;;;17.07;83.55;101368.47;5013692;28;1287;-62
2022/10/18 06:03:21;;;;;;;;;;;;;;;17.07;82.71;101373.19;5013758;28;992;-62
2022/10/18 06:05:47;;;;;;;;;;;;;;;17.07;83.37;101376.78;5013445;28;1953;-60
2022/10/18 06:08:12;;;;;;;;;;;;;;;17.08;82.85;101377.59;5013743;28;1024;-62
2022/10/18 06:10:38;;;;;;;;;;;;;;;17.07;83.61;101378.72;5013727;28;943;-61
2022/10/18 06:13:03;;;;;;;;;;;;;;;17.07;82.45;101387.84;5013169;28;1119;-62
2022/10/18 06:15:29;;;;;;;;;;;;;;;17.08;83.60;101388.66;5013688;28;972;-63
2022/10/18 06:17:54;;;;;;;;;;;;;;;17.08;83.46;101394.19;5013215;28;1004;-63
2022/10/18 06:20:19;;;;;;;;;;;;;;;17.08;83.68;101385.91;5013601;28;848;-63
2022/10/18 06:22:44;;;;;;;;;;;;;;;17.08;82.84;101392.25;5013417;28;1197;-62
2022/10/18 06:25:09;;;;;;;;;;;;;;;17.08;83.21;101385.91;5013467;28;1907;-62
2022/10/18 06:27:34;;;;;;;;;;;;;;;17.07;83.05;101387.84;5013122;28;971;-63
2022/10/18 06:29:59;;;;;;;;;;;;;;;17.07;83.87;101384.25;5013433;28;996;-62
2022/10/18 06:32:25;;;;;;;;;;;;;;;17.07;83.36;101378.72;5013246;28;1221;-63
2022/10/18 06:34:50;;;;;;;;;;;;;;;17.07;83.11;101376.78;5013362;28;841;-63
2022/10/18 06:37:15;;;;;;;;;;;;;;;17.06;82.44;101377.91;5013204;28;980;-63
2022/10/18 06:39:40;;;;;;;;;;;;;;;17.06;82.70;101386.19;5013340;28;798;-62
2022/10/18 06:42:05;;;;;;;;;;;;;;;17.06;82.48;101382.59;5013215;28;1299;-63
2022/10/18 06:44:30;;;;;;;;;;;;;;;17.06;82.98;101382.59;5013262;28;1969;-62
2022/10/18 06:46:56;;;;;;;;;;;;;;;17.06;83.37;101386.19;5013034;28;961;-60
2022/10/18 06:49:21;;;;;;;;;;;;;;;17.06;83.30;101377.91;5013211;28;913;-62
2022/10/18 06:51:46;;;;;;;;;;;;;;;17.08;82.64;101385.91;5013213;28;1205;-62
2022/10/18 06:54:11;;;;;;;;;;;;;;;17.07;83.80;101378.72;5013299;28;817;-63
2022/10/18 06:56:37;;;;;;;;;;;;;;;17.07;82.69;101379.53;5012911;28;988;-63
2022/10/18 06:59:02;;;;;;;;;;;;;;;17.07;83.38;101379.53;5013125;28;1044;-63
2022/10/18 07:01:27;;;;;;;;;;;;;;;17.06;82.79;101377.06;5013233;28;1210;-63
2022/10/18 07:03:53;;;;;;;;;;;;;;;17.07;83.74;101378.72;5016878;28;769;-62
2022/10/18 07:06:19;;;;;;;;;;;;;;;17.06;83.47;101371.53;5016680;28;959;-61
2022/10/18 07:08:45;;;;;;;;;;;;;;;17.06;83.30;101374.31;5016973;28;935;-61
2022/10/18 07:11:18;;;;;;;;;;;;;;;17.06;83.03;101385.38;5016682;28;1193;-61
2022/10/18 07:13:43;;;;;;;;;;;;;;;17.07;83.20;101390.59;5016748;28;1727;-62
2022/10/18 07:16:10;;;;;;;;;;;;;;;17.06;83.02;101394.50;5016428;28;1016;-62
2022/10/18 07:18:36;;;;;;;;;;;;;;;17.06;83.22;101396.44;5016730;28;984;-62
2022/10/18 07:21:02;;;;;;;;;;;;;;;17.05;83.20;101392.84;5016791;28;1206;-62
2022/10/18 07:23:28;;;;;;;;;;;;;;;17.06;83.40;101405.56;5016678;28;885;-63
2022/10/18 07:25:53;;;;;;;;;;;;;;;17.07;83.16;101406.38;5016174;28;1894;-62
2022/10/18 07:28:18;;;;;;;;;;;;;;;17.07;83.64;101409.16;5016522;28;1180;-63
2022/10/18 07:30:43;;;;;;;;;;;;;;;17.06;83.48;101411.09;5016413;28;751;-62
2022/10/18 07:33:08;;;;;;;;;;;;;;;17.06;82.74;101407.50;5016334;28;1254;-63
2022/10/18 07:35:34;;;;;;;;;;;;;;;17.07;83.50;101417.44;5015537;28;1625;-62
2022/10/18 07:37:59;;;;;;;;;;;;;;;17.06;82.98;101427.69;5016432;28;803;-63
2022/10/18 07:40:24;;;;;;;;;;;;;;;17.06;82.21;101411.09;5016250;28;982;-62
2022/10/18 07:42:49;;;;;;;;;;;;;;;17.06;82.49;101413.84;5016182;28;1217;-62
2022/10/18 07:45:14;;;;;;;;;;;;;;;17.07;83.44;101411.91;5016077;28;1906;-62
2022/10/18 07:47:39;;;;;;;;;;;;;;;17.06;82.92;101411.09;5015915;28;789;-62
2022/10/18 07:50:05;;;;;;;;;;;;;;;17.07;83.55;101417.44;5016127;28;1031;-62
2022/10/18 07:52:30;;;;;;;;;;;;;;;17.08;83.53;101421.84;5016038;28;1217;-63
2022/10/18 07:54:55;;;;;;;;;;;;;;;17.08;82.79;101424.63;5015995;28;992;-63
2022/10/18 07:57:22;;;;;;;;;;;;;;;17.08;83.37;101430.16;5015719;28;699;-63
2022/10/18 07:59:51;;;;;;;;;;;;;;;17.07;82.78;101426.56;5015991;28;870;-62
2022/10/18 08:02:16;;;;;;;;;;;;;;;17.09;82.49;101421.56;5015829;28;1309;-62
2022/10/18 08:04:41;;;;;;;;;;;;;;;17.09;83.07;101420.75;5015835;28;1898;-63
2022/10/18 08:07:06;;;;;;;;;;;;;;;17.09;83.63;101427.09;5015578;28;853;-62
2022/10/18 08:09:31;;;;;;;;;;;;;;;17.11;83.48;101429.53;5015764;28;1027;-63
2022/10/18 08:11:56;;;;;;;;;;;;;;;17.10;83.27;101428.72;5014316;28;1244;-62
2022/10/18 08:14:22;;;;;;;;;;;;;;;17.10;83.11;101436.22;5014633;28;925;-63
2022/10/18 08:16:47;;;;;;;;;;;;;;;17.11;83.46;101435.06;5015271;28;821;-63
2022/10/18 08:19:12;;;;;;;;;;;;;;;17.12;83.37;101428.41;5015563;28;1070;-60
2022/10/18 08:21:37;;;;;;;;;;;;;;;17.12;82.34;101436.72;5015477;28;1158;-63
2022/10/18 08:24:02;;;;;;;;;;;;;;;17.11;82.13;101444.19;5015424;28;1972;-62
2022/10/18 08:26:27;;;;;;;;;;;;;;;17.11;82.22;101449.72;5015218;28;995;-62
2022/10/18 08:28:53;;;;;;;;;;;;;;;17.11;82.75;101449.72;5015834;28;1056;-63
2022/10/18 08:31:18;;;;;;;;;;;;;;;17.11;82.37;101452.50;5015238;28;1202;-63
2022/10/18 08:33:44;;;;;;;;;;;;;;;17.11;82.55;101446.13;5015317;28;837;-63
2022/10/18 08:36:10;;;;;;;;;;;;;;;17.12;83.34;101450.53;5015210;28;853;-63
2022/10/18 08:38:37;;;;;;;;;;;;;;;17.12;82.62;101456.06;5015248;28;1024;-63
2022/10/18 08:41:25;;;;;;;;;;;;;;;17.11;83.15;101460.78;5015102;28;1292;-63
2022/10/18 08:43:57;;;;;;;;;;;;;;;17.12;83.29;101464.38;4995797;28;1248;-62
2022/10/18 08:46:23;;;;;;;;;;;;;;;17.11;83.10;101468.25;5014867;28;1064;-62
2022/10/18 08:48:50;;;;;;;;;;;;;;;17.12;82.44;101476.28;5014997;28;981;-62
2022/10/18 08:51:21;;;;;;;;;;;;;;;17.11;82.60;101474.63;5014901;28;1286;-63
2022/10/18 08:53:54;;;;;;;;;;;;;;;17.11;83.52;101471.84;5014911;28;1071;-63
2022/10/18 08:56:23;;;;;;;;;;;;;;;17.11;83.03;101469.09;5014558;28;1003;-62
2022/10/18 08:58:48;;;;;;;;;;;;;;;17.11;83.20;101468.25;5013564;28;1260;-63
2022/10/18 09:01:22;;;;;;;;;;;;;;;17.11;82.73;101462.72;5014723;28;1225;-62
2022/10/18 09:03:50;;;;;;;;;;;;;;;17.12;82.73;101458.84;5014754;28;822;-62
2022/10/18 09:06:24;;;;;;;;;;;;;;;17.12;82.90;101459.66;5014336;28;1898;-62
2022/10/18 09:09:00;;;;;;;;;;;;;;;17.12;83.24;101462.44;5014570;28;810;-62
2022/10/18 09:11:36;;;;;;;;;;;;;;;17.13;83.05;101463.25;5014542;28;1193;-61
2022/10/18 09:14:08;;;;;;;;;;;;;;;17.13;82.46;101458.56;5014613;28;1079;-61
2022/10/18 09:16:52;;;;;;;;;;;;;;;17.12;82.87;101465.19;5014344;28;786;-63
2022/10/18 09:19:17;;;;;;;;;;;;;;;17.14;82.36;101467.66;5014422;28;1039;-63
2022/10/18 09:21:52;;;;;;;;;;;;;;;17.13;82.29;101469.63;5014536;28;1488;-63
2022/10/18 09:24:24;;;;;;;;;;;;;;;17.12;82.17;101473.50;5014275;28;1898;-62
2022/10/18 09:26:55;;;;;;;;;;;;;;;17.13;83.28;101474.31;5014174;28;1063;-63
2022/10/18 09:29:29;;;;;;;;;;;;;;;17.13;82.59;101471.56;5014363;28;866;-63
2022/10/18 09:32:02;;;;;;;;;;;;;;;17.13;83.07;101477.09;5014477;28;1343;-62
2022/10/18 09:34:31;;;;;;;;;;;;;;;17.14;83.23;101481.50;5014243;28;916;-63
2022/10/18 09:36:56;;;;;;;;;;;;;;;17.14;83.03;101487.03;5013868;28;1023;-61
2022/10/18 09:39:24;;;;;;;;;;;;;;;17.14;82.85;101478.75;5014287;28;802;-63
2022/10/18 09:41:56;;;;;;;;;;;;;;;17.15;82.09;101477.63;5013989;28;1407;-62
2022/10/18 09:44:26;;;;;;;;;;;;;;;17.15;82.19;101478.44;5013894;28;1972;-63
2022/10/18 09:46:58;;;;;;;;;;;;;;;17.17;82.73;101475.38;5013789;28;1048;-62
2022/10/18 09:49:32;;;;;;;;;;;;;;;17.18;82.96;101477.03;5014128;28;930;-63
2022/10/18 09:51:59;;;;;;;;;;;;;;;17.21;82.95;101473.63;5013836;28;1181;-63
2022/10/18 09:54:33;;;;;;;;;;;;;;;17.19;82.83;101473.94;5013890;28;936;-62
2022/10/18 09:57:22;;;;;;;;;;;;;;;17.19;83.02;101473.94;5013625;28;1012;-61
2022/10/18 09:59:48;;;;;;;;;;;;;;;17.19;83.00;101473.13;5008130;28;1802;-62
2022/10/18 10:02:15;;;;;;;;;;;;;;;17.18;82.34;101477.81;5013918;28;1193;-62
2022/10/18 10:04:40;;;;;;;;;;;;;;;17.18;82.59;101482.56;5013695;28;1894;-63
2022/10/18 10:07:11;;;;;;;;;;;;;;;17.19;82.75;101484.19;5013326;28;761;-62
2022/10/18 10:09:45;;;;;;;;;;;;;;;17.19;82.53;101489.72;5013698;28;790;-61
2022/10/18 10:12:43;;;;;;;;;;;;;;;17.19;82.40;101486.94;5013569;28;1315;-63
2022/10/18 10:15:28;;;;;;;;;;;;;;;17.20;82.34;101489.41;4991173;28;1386;-63
2022/10/18 10:18:00;;;;;;;;;;;;;;;17.20;82.75;101488.59;5012965;28;1385;-63
2022/10/18 10:20:33;;;;;;;;;;;;;;;17.21;83.00;101484.72;5013861;28;1004;-62
2022/10/18 10:23:12;;;;;;;;;;;;;;;17.21;83.06;101491.06;5013489;28;1190;-63
2022/10/18 10:25:39;;;;;;;;;;;;;;;17.22;83.10;101489.94;5013388;28;1964;-62
2022/10/18 10:28:15;;;;;;;;;;;;;;;17.22;81.73;101491.88;5013130;28;790;-63
2022/10/18 10:30:40;;;;;;;;;;;;;;;17.23;82.71;101493.53;5013493;28;1019;-63
2022/10/18 10:33:25;;;;;;;;;;;;;;;17.24;82.47;101495.19;5013479;28;1288;-63
2022/10/18 10:35:57;;;;;;;;;;;;;;;17.25;81.66;101492.13;5012976;28;2063;-60
2022/10/18 10:38:25;;;;;;;;;;;;;;;17.25;82.60;101488.53;5016673;28;1063;-63
2022/10/18 10:40:51;;;;;;;;;;;;;;;17.26;82.71;101492.94;5017318;28;1189;-63
2022/10/18 10:43:22;;;;;;;;;;;;;;;17.25;82.08;101492.13;5017405;28;885;-62
2022/10/18 10:45:55;;;;;;;;;;;;;;;17.25;82.35;101485.75;5017130;28;1958;-63
2022/10/18 10:48:20;;;;;;;;;;;;;;;17.25;81.85;101483.00;5017382;28;822;-62
2022/10/18 10:50:50;;;;;;;;;;;;;;;17.25;82.81;101481.06;5017043;28;1243;-63
2022/10/18 10:53:28;;;;;;;;;;;;;;;17.26;81.71;101479.09;5017273;28;810;-62
2022/10/18 10:55:54;;;;;;;;;;;;;;;17.26;82.45;101485.47;5016882;28;829;-62
2022/10/18 10:58:20;;;;;;;;;;;;;;;17.27;81.66;101477.97;5017234;28;996;-62
2022/10/18 11:00:45;;;;;;;;;;;;;;;17.26;82.74;101471.63;5017013;28;1209;-61
2022/10/18 11:03:12;;;;;;;;;;;;;;;17.26;82.78;101477.16;5016960;28;1059;-62
2022/10/18 11:05:42;;;;;;;;;;;;;;;17.27;81.53;101489.84;5016807;28;1906;-63
2022/10/18 11:08:09;;;;;;;;;;;;;;;17.27;82.38;101481.56;5016732;28;1024;-63
2022/10/18 11:10:48;;;;;;;;;;;;;;;17.27;81.44;101476.03;5016763;28;888;-63
2022/10/18 11:13:29;;;;;;;;;;;;;;;17.27;82.49;101477.97;5016847;28;869;-62
2022/10/18 11:16:00;;;;;;;;;;;;;;;17.28;82.63;101485.13;5016951;28;868;-61
2022/10/18 11:18:28;;;;;;;;;;;;;;;17.27;82.60;101481.56;5016758;28;1000;-62
2022/10/18 11:21:10;;;;;;;;;;;;;;;17.28;81.51;101479.59;5016537;28;1219;-62
2022/10/18 11:23:37;;;;;;;;;;;;;;;17.28;82.56;101488.72;5016683;28;862;-62
2022/10/18 11:26:02;;;;;;;;;;;;;;;17.30;81.74;101480.13;5016273;28;1914;-63
2022/10/18 11:28:45;;;;;;;;;;;;;;;17.30;82.85;101477.38;5016483;28;956;-62
2022/10/18 11:31:16;;;;;;;;;;;;;;;17.30;82.64;101493.97;5016665;28;1221;-62
2022/10/18 11:33:56;;;;;;;;;;;;;;;17.29;82.62;101481.25;5016454;28;1056;-62
2022/10/18 11:36:37;;;;;;;;;;;;;;;17.29;81.85;101484.03;5016103;28;980;-63
2022/10/18 11:39:08;;;;;;;;;;;;;;;17.29;81.75;101478.50;5016375;28;992;-62
2022/10/18 11:41:38;;;;;;;;;;;;;;;17.31;82.51;101479.03;5016223;28;1284;-62
2022/10/18 11:44:13;;;;;;;;;;;;;;;17.30;82.59;101477.38;5016406;28;901;-63
2022/10/18 11:46:48;;;;;;;;;;;;;;;17.31;82.20;101476.25;5016055;28;889;-63
2022/10/18 11:49:32;;;;;;;;;;;;;;;17.31;82.39;101476.25;5016496;28;1015;-62
2022/10/18 11:52:09;;;;;;;;;;;;;;;17.31;82.61;101468.78;5015928;28;1296;-63
2022/10/18 11:54:54;;;;;;;;;;;;;;;17.32;82.25;101470.41;5016142;28;829;-62
2022/10/18 11:57:19;;;;;;;;;;;;;;;17.33;82.13;101483.13;5015694;28;921;-61
2022/10/18 11:59:55;;;;;;;;;;;;;;;17.33;81.79;101476.78;5015963;28;782;-63
2022/10/18 12:02:31;;;;;;;;;;;;;;;17.33;82.67;101476.78;5015872;28;1232;-63
2022/10/18 12:04:58;;;;;;;;;;;;;;;17.34;81.12;101472.88;5015798;28;1961;-63
2022/10/18 12:07:24;;;;;;;;;;;;;;;17.34;82.58;101479.25;5015544;28;984;-61
2022/10/18 12:09:52;;;;;;;;;;;;;;;17.35;82.19;101480.06;5015771;28;993;-63
2022/10/18 12:12:20;;;;;;;;;;;;;;;17.35;82.32;101477.31;5015647;28;1209;-63
2022/10/18 12:14:51;;;;;;;;;;;;;;;17.35;81.23;101463.47;5015809;28;1055;-63
2022/10/18 12:17:28;;;;;;;;;;;;;;;17.36;82.50;101467.84;5015357;28;801;-63
2022/10/18 12:19:55;;;;;;;;;;;;;;;17.36;81.18;101463.13;5015556;28;1032;-61
2022/10/18 12:22:28;;;;;;;;;;;;;;;17.36;81.97;101457.59;5015421;28;1248;-62
2022/10/18 12:24:53;;;;;;;;;;;;;;;17.36;82.12;101456.78;5015461;28;1891;-62
2022/10/18 12:27:35;;;;;;;;;;;;;;;17.34;82.10;101457.09;5015400;28;905;-63
2022/10/18 12:30:16;;;;;;;;;;;;;;;17.35;81.59;101449.63;5015460;28;924;-62
2022/10/18 12:32:42;;;;;;;;;;;;;;;17.36;81.85;101448.47;5015281;28;1635;-63
2022/10/18 12:35:13;;;;;;;;;;;;;;;17.38;81.41;101449.00;5015239;28;928;-63
2022/10/18 12:37:53;;;;;;;;;;;;;;;17.38;81.14;101451.78;5015013;28;1059;-62
2022/10/18 12:40:23;;;;;;;;;;;;;;;17.38;82.26;101427.69;5015221;28;814;-62
2022/10/18 12:42:50;;;;;;;;;;;;;;;17.40;81.51;101444.00;5015190;28;1178;-61
2022/10/18 12:45:26;;;;;;;;;;;;;;;17.41;82.15;101445.63;5014987;28;1898;-62
2022/10/18 12:47:51;;;;;;;;;;;;;;;17.42;81.70;101444.53;5014760;28;802;-62
2022/10/18 12:50:25;;;;;;;;;;;;;;;17.43;81.30;101437.03;5015149;28;878;-62
2022/10/18 12:53:01;;;;;;;;;;;;;;;17.45;81.47;101445.84;5014856;28;1177;-62
2022/10/18 12:55:29;;;;;;;;;;;;;;;17.46;81.09;101433.66;5014926;28;964;-63